createdAt,value
2023-04-03T00:01:06.598Z,60.60
2023-04-03T00:03:33.668Z,59.60
2023-04-03T00:06:01.463Z,61.20
2023-04-03T00:08:28.530Z,61.00
2023-04-03T00:10:56.036Z,61.90
2023-04-03T00:13:22.932Z,60.50
2023-04-03T00:15:50.203Z,61.40
2023-04-03T00:18:17.204Z,62.00
2023-04-03T00:20:44.645Z,62.30
2023-04-03T00:23:12.018Z,62.30
2023-04-03T00:25:39.234Z,62.50
2023-04-03T00:28:06.402Z,61.60
2023-04-03T00:30:34.037Z,59.10
2023-04-03T00:33:01.782Z,60.80
2023-04-03T00:35:29.246Z,60.70
2023-04-03T00:37:57.366Z,61.30
2023-04-03T00:40:27.687Z,60.40
2023-04-03T00:43:00.605Z,59.50
2023-04-03T00:45:37.499Z,59.90
2023-04-03T00:48:07.957Z,60.40
2023-04-03T00:50:41.281Z,60.40
2023-04-03T00:53:12.599Z,59.70
2023-04-03T00:55:40.392Z,61.20
2023-04-03T00:58:08.540Z,62.10
2023-04-03T01:00:40.849Z,62.20
2023-04-03T01:03:07.886Z,63.40
2023-04-03T01:05:36.579Z,62.80
2023-04-03T01:08:04.757Z,61.80
2023-04-03T01:10:32.080Z,64.20
2023-04-03T01:13:01.879Z,65.40
2023-04-03T01:15:35.847Z,65.00
2023-04-03T01:18:03.833Z,65.00
2023-04-03T01:20:37.076Z,65.70
2023-04-03T01:23:13.416Z,64.60
2023-04-03T01:25:41.238Z,64.20
2023-04-03T01:28:13.068Z,64.20
2023-04-03T01:30:51.755Z,64.60
2023-04-03T01:33:18.987Z,63.50
2023-04-03T01:35:47.989Z,63.60
2023-04-03T01:38:16.018Z,62.60
2023-04-03T01:40:43.343Z,63.60
2023-04-03T01:43:11.087Z,63.90
2023-04-03T01:45:38.378Z,64.20
2023-04-03T01:48:05.627Z,64.40
2023-04-03T01:50:32.760Z,64.60
2023-04-03T01:52:59.811Z,64.50
2023-04-03T01:55:26.914Z,64.80
2023-04-03T01:57:53.946Z,65.50
2023-04-03T02:00:21.129Z,65.50
2023-04-03T02:02:48.082Z,64.90
2023-04-03T02:05:15.533Z,64.40
2023-04-03T02:07:42.454Z,64.30
2023-04-03T02:10:09.845Z,64.20
2023-04-03T02:12:36.872Z,66.20
2023-04-03T02:15:04.371Z,64.70
2023-04-03T02:17:31.457Z,64.10
2023-04-03T02:19:58.431Z,64.60
2023-04-03T02:22:25.400Z,65.00
2023-04-03T02:24:52.885Z,65.80
2023-04-03T02:27:21.401Z,65.90
2023-04-03T02:29:49.329Z,67.00
2023-04-03T02:32:16.604Z,66.60
2023-04-03T02:34:45.367Z,66.10
2023-04-03T02:37:14.300Z,66.10
2023-04-03T02:39:43.944Z,67.00
2023-04-03T02:42:11.429Z,67.40
2023-04-03T02:44:39.882Z,66.30
2023-04-03T02:47:07.164Z,65.40
2023-04-03T02:49:34.096Z,66.50
2023-04-03T02:52:01.127Z,67.80
2023-04-03T02:54:31.628Z,67.70
2023-04-03T02:57:02.301Z,67.90
2023-04-03T02:59:29.320Z,67.50
2023-04-03T03:01:56.909Z,68.70
2023-04-03T03:04:24.199Z,68.40
2023-04-03T03:06:51.776Z,69.20
2023-04-03T03:09:18.879Z,69.30
2023-04-03T03:11:45.980Z,69.70
2023-04-03T03:14:12.997Z,68.30
2023-04-03T03:16:39.877Z,69.80
2023-04-03T03:19:07.783Z,70.10
2023-04-03T03:21:35.209Z,69.70
2023-04-03T03:24:02.778Z,69.50
2023-04-03T03:26:30.434Z,70.80
2023-04-03T03:28:57.505Z,71.10
2023-04-03T03:31:24.954Z,70.40
2023-04-03T03:33:51.880Z,71.90
2023-04-03T03:36:19.698Z,71.50
2023-04-03T03:38:46.871Z,71.10
2023-04-03T03:41:14.001Z,71.80
2023-04-03T03:43:43.908Z,71.40
2023-04-03T03:46:12.391Z,71.60
2023-04-03T03:48:39.433Z,72.30
2023-04-03T03:51:06.375Z,71.30
2023-04-03T03:53:37.140Z,71.00
2023-04-03T03:56:08.325Z,72.30
2023-04-03T03:58:37.726Z,72.90
2023-04-03T04:01:06.950Z,75.30
2023-04-03T04:03:38.104Z,73.80
2023-04-03T04:06:06.308Z,73.80
2023-04-03T04:08:33.588Z,73.80
2023-04-03T04:11:01.056Z,74.50
2023-04-03T04:13:29.233Z,74.40
2023-04-03T04:15:56.584Z,75.50
2023-04-03T04:18:24.969Z,72.80
2023-04-03T04:20:52.887Z,74.20
2023-04-03T04:23:20.286Z,74.40
2023-04-03T04:25:51.086Z,72.80
2023-04-03T04:28:19.396Z,72.80
2023-04-03T04:30:48.501Z,74.10
2023-04-03T04:33:17.418Z,74.80
2023-04-03T04:35:47.977Z,74.00
2023-04-03T04:38:15.203Z,75.10
2023-04-03T04:40:42.597Z,75.70
2023-04-03T04:43:09.979Z,76.30
2023-04-03T04:45:37.376Z,76.50
2023-04-03T04:48:05.075Z,75.80
2023-04-03T04:50:32.272Z,77.60
2023-04-03T04:52:59.389Z,77.20
2023-04-03T04:55:26.631Z,77.50
2023-04-03T04:57:53.772Z,76.70
2023-04-03T05:00:22.247Z,76.70
2023-04-03T05:02:49.826Z,76.00
2023-04-03T05:05:18.831Z,75.30
2023-04-03T05:07:46.179Z,75.20
2023-04-03T05:10:13.249Z,74.10
2023-04-03T05:12:41.394Z,74.40
2023-04-03T05:15:09.713Z,73.60
2023-04-03T05:17:37.067Z,73.10
2023-04-03T05:20:10.143Z,74.80
2023-04-03T05:22:38.348Z,76.10
2023-04-03T05:25:08.741Z,76.00
2023-04-03T05:27:36.216Z,76.20
2023-04-03T05:30:04.010Z,76.60
2023-04-03T05:32:32.596Z,78.00
2023-04-03T05:35:22.897Z,77.70
2023-04-03T05:37:53.857Z,77.20
2023-04-03T05:40:22.182Z,77.40
2023-04-03T05:42:54.692Z,76.30
2023-04-03T05:45:24.772Z,75.90
2023-04-03T05:47:52.352Z,75.50
2023-04-03T05:50:20.198Z,75.00
2023-04-03T05:52:52.277Z,76.30
2023-04-03T05:55:19.946Z,76.80
2023-04-03T05:57:47.265Z,76.80
2023-04-03T06:00:18.649Z,78.30
2023-04-03T06:02:54.906Z,78.40
2023-04-03T06:05:25.153Z,78.40
2023-04-03T06:07:52.456Z,76.90
2023-04-03T06:10:21.176Z,77.10
2023-04-03T06:12:48.242Z,77.10
2023-04-03T06:15:15.819Z,77.20
2023-04-03T06:17:43.118Z,76.00
2023-04-03T06:20:10.977Z,75.20
2023-04-03T06:22:38.033Z,75.10
2023-04-03T06:25:06.082Z,74.50
2023-04-03T06:27:33.122Z,74.20
2023-04-03T06:30:06.071Z,73.40
2023-04-03T06:32:52.674Z,72.40
2023-04-03T06:35:29.097Z,71.60
2023-04-03T06:38:26.666Z,70.60
2023-04-03T06:41:08.266Z,69.20
2023-04-03T06:43:37.522Z,67.80
2023-04-03T06:46:05.092Z,65.20
2023-04-03T06:48:32.589Z,63.60
2023-04-03T06:50:59.639Z,61.90
2023-04-03T06:53:27.218Z,62.90
2023-04-03T06:55:54.314Z,63.00
2023-04-03T06:58:22.634Z,63.40
2023-04-03T07:00:50.476Z,63.00
2023-04-03T07:03:17.456Z,62.80
2023-04-03T07:05:45.970Z,61.20
2023-04-03T07:08:13.189Z,59.70
2023-04-03T07:10:41.776Z,58.40
2023-04-03T07:13:08.882Z,59.00
2023-04-03T07:15:37.568Z,58.00
2023-04-03T07:18:07.099Z,55.50
2023-04-03T07:20:34.143Z,54.00
2023-04-03T07:23:04.210Z,54.30
2023-04-03T07:25:33.838Z,54.20
2023-04-03T07:28:01.607Z,53.50
2023-04-03T07:30:28.611Z,51.80
2023-04-03T07:32:56.136Z,49.30
2023-04-03T07:35:23.418Z,49.00
2023-04-03T07:37:51.749Z,50.60
2023-04-03T07:40:19.689Z,50.20
2023-04-03T07:42:47.795Z,50.30
2023-04-03T07:45:14.787Z,46.50
2023-04-03T07:47:43.082Z,45.90
2023-04-03T07:50:10.377Z,45.30
2023-04-03T07:52:37.354Z,44.00
2023-04-03T07:55:04.564Z,44.80
2023-04-03T07:57:31.597Z,41.30
2023-04-03T07:59:58.611Z,42.50
2023-04-03T08:02:26.216Z,41.90
2023-04-03T08:04:53.324Z,42.50
2023-04-03T08:07:20.406Z,40.70
2023-04-03T08:09:47.317Z,41.30
2023-04-03T08:12:15.830Z,37.40
2023-04-03T08:14:42.855Z,37.30
2023-04-03T08:17:12.713Z,33.30
2023-04-03T08:19:40.853Z,34.10
2023-04-03T08:22:08.177Z,30.00
2023-04-03T08:24:36.329Z,28.30
2023-04-03T08:27:03.470Z,31.50
2023-04-03T08:29:32.079Z,30.30
2023-04-03T08:31:59.943Z,30.60
2023-04-03T08:34:27.194Z,30.60
2023-04-03T08:36:54.207Z,27.00
2023-04-03T08:39:21.188Z,25.60
2023-04-03T08:41:49.133Z,22.80
2023-04-03T08:44:37.430Z,21.40
2023-04-03T08:47:26.296Z,25.00
2023-04-03T08:50:00.449Z,20.00
2023-04-03T08:52:38.988Z,17.50
2023-04-03T08:55:14.506Z,17.20
2023-04-03T08:57:45.394Z,16.50
2023-04-03T09:00:15.390Z,17.00
2023-04-03T09:02:52.188Z,15.50
2023-04-03T09:05:41.953Z,12.20
2023-04-03T09:08:38.999Z,11.50
2023-04-03T09:11:42.470Z,6.00
2023-04-03T09:14:22.015Z,4.90
2023-04-03T09:17:02.100Z,5.00
2023-04-03T09:19:29.707Z,1.00
2023-04-03T09:21:58.818Z,1.00
2023-04-03T09:24:26.536Z,1.00
2023-04-03T09:27:05.040Z,1.00
2023-04-03T09:29:32.896Z,1.00
2023-04-03T09:32:10.820Z,1.00
2023-04-03T09:34:39.148Z,1.00
2023-04-03T09:37:07.133Z,1.00
2023-04-03T09:39:50.929Z,1.00
2023-04-03T09:42:23.609Z,1.00
2023-04-03T09:45:06.426Z,1.00
2023-04-03T09:47:37.843Z,1.00
2023-04-03T09:50:24.219Z,1.00
2023-04-03T09:52:52.899Z,1.00
2023-04-03T09:55:27.942Z,1.00
2023-04-03T09:58:03.478Z,1.00
2023-04-03T10:00:35.148Z,1.00
2023-04-03T10:03:02.777Z,1.00
2023-04-03T10:05:39.948Z,1.00
2023-04-03T10:08:10.505Z,1.00
2023-04-03T10:10:39.082Z,1.00
2023-04-03T10:13:09.406Z,1.00
2023-04-03T10:15:56.443Z,1.00
2023-04-03T10:18:27.076Z,1.00
2023-04-03T10:20:56.191Z,1.00
2023-04-03T10:24:08.181Z,1.00
2023-04-03T10:27:00.106Z,1.00
2023-04-03T10:29:29.850Z,1.00
2023-04-03T10:32:32.346Z,1.00
2023-04-03T10:35:26.191Z,1.00
2023-04-03T10:38:16.791Z,1.00
2023-04-03T10:41:21.681Z,1.00
2023-04-03T10:44:18.277Z,1.00
2023-04-03T10:47:03.311Z,1.00
2023-04-03T10:49:32.928Z,1.00
2023-04-03T10:52:39.898Z,1.00
2023-04-03T10:55:40.291Z,1.00
2023-04-03T10:58:13.101Z,1.00
2023-04-03T11:00:47.478Z,1.00
2023-04-03T11:03:33.089Z,1.00
2023-04-03T11:06:07.246Z,1.00
2023-04-03T11:08:56.281Z,1.00
2023-04-03T11:11:28.304Z,1.00
2023-04-03T11:14:17.434Z,1.00
2023-04-03T11:16:54.424Z,1.00
2023-04-03T11:19:25.307Z,1.00
2023-04-03T11:22:03.137Z,1.00
2023-04-03T11:24:34.060Z,1.00
2023-04-03T11:27:05.417Z,1.00
2023-04-03T11:29:42.766Z,1.00
2023-04-03T11:32:38.604Z,1.00
2023-04-03T11:35:11.114Z,1.00
2023-04-03T11:37:46.054Z,1.00
2023-04-03T11:40:27.744Z,1.00
2023-04-03T11:43:01.337Z,1.00
2023-04-03T11:45:33.632Z,1.00
2023-04-03T11:48:25.129Z,1.00
2023-04-03T11:50:53.007Z,1.00
2023-04-03T11:53:34.132Z,1.00
2023-04-03T11:56:09.217Z,1.00
2023-04-03T11:58:37.393Z,1.00
2023-04-03T12:01:08.769Z,1.00
2023-04-03T12:04:05.720Z,1.00
2023-04-03T12:06:37.024Z,1.00
2023-04-03T12:09:24.498Z,1.00
2023-04-03T12:11:53.465Z,1.00
2023-04-03T12:14:25.336Z,1.00
2023-04-03T12:16:56.051Z,1.00
2023-04-03T12:19:42.563Z,1.00
2023-04-03T12:22:21.728Z,1.00
2023-04-03T12:24:53.894Z,1.00
2023-04-03T12:27:34.166Z,1.00
2023-04-03T12:30:12.985Z,1.00
2023-04-03T12:33:09.764Z,1.00
2023-04-03T12:36:13.892Z,1.00
2023-04-03T12:38:46.974Z,1.00
2023-04-03T12:41:39.065Z,1.00
2023-04-03T12:44:08.685Z,1.00
2023-04-03T12:46:44.418Z,1.00
2023-04-03T12:49:41.182Z,1.00
2023-04-03T12:52:38.100Z,1.00
2023-04-03T12:55:16.326Z,1.00
2023-04-03T12:57:43.440Z,1.00
2023-04-03T13:00:35.790Z,1.00
2023-04-03T13:03:04.977Z,1.00
2023-04-03T13:05:36.520Z,1.00
2023-04-03T13:08:13.696Z,1.00
2023-04-03T13:11:02.347Z,1.00
2023-04-03T13:13:29.582Z,1.00
2023-04-03T13:15:57.431Z,1.00
2023-04-03T13:18:35.840Z,1.00
2023-04-03T13:21:16.333Z,1.00
2023-04-03T13:23:47.759Z,1.00
2023-04-03T13:26:18.283Z,1.00
2023-04-03T13:28:46.726Z,1.00
2023-04-03T13:31:15.088Z,1.00
2023-04-03T13:34:04.264Z,1.00
2023-04-03T13:36:34.236Z,1.00
2023-04-03T13:39:07.787Z,1.00
2023-04-03T13:41:37.703Z,1.00
2023-04-03T13:44:19.687Z,1.00
2023-04-03T13:46:46.590Z,1.00
2023-04-03T13:49:28.194Z,1.00
2023-04-03T13:52:07.313Z,1.00
2023-04-03T13:54:39.852Z,1.00
2023-04-03T13:57:17.808Z,1.00
2023-04-03T13:59:45.632Z,1.00
2023-04-03T14:02:15.264Z,1.00
2023-04-03T14:04:45.380Z,1.00
2023-04-03T14:07:17.863Z,1.00
2023-04-03T14:09:45.035Z,1.00
2023-04-03T14:12:32.164Z,1.00
2023-04-03T14:15:04.366Z,1.00
2023-04-03T14:17:32.217Z,1.00
2023-04-03T14:19:59.927Z,1.00
2023-04-03T14:22:30.351Z,1.00
2023-04-03T14:24:58.449Z,1.00
2023-04-03T14:27:52.357Z,1.00
2023-04-03T14:30:32.154Z,1.00
2023-04-03T14:33:00.779Z,1.00
2023-04-03T14:35:28.376Z,1.00
2023-04-03T14:37:56.056Z,1.00
2023-04-03T14:40:28.219Z,1.00
2023-04-03T14:42:56.496Z,1.00
2023-04-03T14:45:24.865Z,1.00
2023-04-03T14:47:54.687Z,1.00
2023-04-03T14:50:26.952Z,1.00
2023-04-03T14:52:58.008Z,1.00
2023-04-03T14:55:26.457Z,1.00
2023-04-03T14:57:55.888Z,1.00
2023-04-03T15:00:24.016Z,1.00
2023-04-03T15:02:51.566Z,1.00
2023-04-03T15:05:20.491Z,1.00
2023-04-03T15:07:58.743Z,1.00
2023-04-03T15:10:28.668Z,1.00
2023-04-03T15:12:58.757Z,1.00
2023-04-03T15:15:29.275Z,1.00
2023-04-03T15:17:59.121Z,1.00
2023-04-03T15:20:28.873Z,1.00
2023-04-03T15:22:57.553Z,1.00
2023-04-03T15:25:26.440Z,1.00
2023-04-03T15:27:55.445Z,1.00
2023-04-03T15:30:22.623Z,1.00
2023-04-03T15:32:49.955Z,1.00
2023-04-03T15:35:17.668Z,1.00
2023-04-03T15:37:44.603Z,1.00
2023-04-03T15:40:12.237Z,1.00
2023-04-03T15:42:39.557Z,1.00
2023-04-03T15:45:07.470Z,1.00
2023-04-03T15:47:34.666Z,1.00
2023-04-03T15:50:01.824Z,1.00
2023-04-03T15:52:28.757Z,1.00
2023-04-03T15:54:55.744Z,1.00
2023-04-03T15:57:27.086Z,1.00
2023-04-03T15:59:54.510Z,1.00
2023-04-03T16:02:22.350Z,1.00
2023-04-03T16:04:50.342Z,1.00
2023-04-03T16:07:17.433Z,1.00
2023-04-03T16:09:44.721Z,1.00
2023-04-03T16:12:11.660Z,1.00
2023-04-03T16:14:38.851Z,1.00
2023-04-03T16:17:06.063Z,1.00
2023-04-03T16:19:33.038Z,1.00
2023-04-03T16:21:59.987Z,1.00
2023-04-03T16:24:27.173Z,1.00
2023-04-03T16:26:54.498Z,1.00
2023-04-03T16:29:21.617Z,1.00
2023-04-03T16:31:48.999Z,1.00
2023-04-03T16:34:17.600Z,1.00
2023-04-03T16:36:44.656Z,1.00
2023-04-03T16:39:11.788Z,1.00
2023-04-03T16:41:38.985Z,1.00
2023-04-03T16:44:08.217Z,1.00
2023-04-03T16:46:35.910Z,1.00
2023-04-03T16:49:03.030Z,1.00
2023-04-03T16:51:30.717Z,1.00
2023-04-03T16:53:57.745Z,1.00
2023-04-03T16:56:25.229Z,1.00
2023-04-03T16:58:52.259Z,1.00
2023-04-03T17:01:21.245Z,1.00
2023-04-03T17:03:48.363Z,1.00
2023-04-03T17:06:20.067Z,1.00
2023-04-03T17:08:51.365Z,1.00
2023-04-03T17:11:28.737Z,1.00
2023-04-03T17:13:55.868Z,1.00
2023-04-03T17:16:23.358Z,1.00
2023-04-03T17:18:52.955Z,1.00
2023-04-03T17:21:20.717Z,1.00
2023-04-03T17:23:53.600Z,1.00
2023-04-03T17:26:22.251Z,1.00
2023-04-03T17:28:49.302Z,1.00
2023-04-03T17:31:16.223Z,1.00
2023-04-03T17:33:43.886Z,1.00
2023-04-03T17:36:11.162Z,1.00
2023-04-03T17:38:38.514Z,1.00
2023-04-03T17:41:08.687Z,1.00
2023-04-03T17:43:36.332Z,1.00
2023-04-03T17:46:10.118Z,1.00
2023-04-03T17:48:39.512Z,1.00
2023-04-03T17:51:08.656Z,1.00
2023-04-03T17:53:36.069Z,1.00
2023-04-03T17:56:17.761Z,1.00
2023-04-03T17:58:45.730Z,1.00
2023-04-03T18:01:18.083Z,1.00
2023-04-03T18:03:46.517Z,1.00
2023-04-03T18:06:18.916Z,1.00
2023-04-03T18:08:52.392Z,1.00
2023-04-03T18:11:22.194Z,1.00
2023-04-03T18:13:49.346Z,1.00
2023-04-03T18:16:16.569Z,1.00
2023-04-03T18:18:43.861Z,1.00
2023-04-03T18:21:13.508Z,1.00
2023-04-03T18:23:44.883Z,1.00
2023-04-03T18:26:16.464Z,1.00
2023-04-03T18:28:54.823Z,1.00
2023-04-03T18:31:22.732Z,1.00
2023-04-03T18:33:50.094Z,1.00
2023-04-03T18:38:44.278Z,1.00
2023-04-03T18:41:12.032Z,1.00
2023-04-03T18:43:39.292Z,1.00
2023-04-03T18:46:07.879Z,1.00
2023-04-03T18:48:36.183Z,1.00
2023-04-03T18:51:03.328Z,1.00
2023-04-03T18:53:32.851Z,1.00
2023-04-03T18:55:59.941Z,1.00
2023-04-03T18:58:32.522Z,1.00
2023-04-03T19:01:01.276Z,1.00
2023-04-03T19:03:31.058Z,1.00
2023-04-03T19:05:58.409Z,1.00
2023-04-03T19:08:25.694Z,1.00
2023-04-03T19:10:52.750Z,1.00
2023-04-03T19:13:19.756Z,1.00
2023-04-03T19:15:48.757Z,1.00
2023-04-03T19:18:16.057Z,1.00
2023-04-03T19:20:42.976Z,1.00
2023-04-03T19:23:12.938Z,1.00
2023-04-03T19:25:41.604Z,1.00
2023-04-03T19:28:10.073Z,1.00
2023-04-03T19:30:38.642Z,1.00
2023-04-03T19:33:07.288Z,1.00
2023-04-03T19:35:34.352Z,1.00
2023-04-03T19:38:01.428Z,1.00
2023-04-03T19:40:29.667Z,1.00
2023-04-03T19:42:56.931Z,1.00
2023-04-03T19:45:26.819Z,1.00
2023-04-03T19:47:54.225Z,1.00
2023-04-03T19:50:21.242Z,1.00
2023-04-03T19:52:48.427Z,1.00
2023-04-03T19:55:16.367Z,1.00
2023-04-03T19:57:43.379Z,1.00
2023-04-03T20:00:11.320Z,1.00
2023-04-03T20:02:41.735Z,1.00
2023-04-03T20:05:11.236Z,1.00
2023-04-03T20:07:39.098Z,1.00
2023-04-03T20:10:06.639Z,1.00
2023-04-03T20:12:35.877Z,1.00
2023-04-03T20:15:07.590Z,1.00
2023-04-03T20:17:35.380Z,1.00
2023-04-03T20:20:04.700Z,1.00
2023-04-03T20:22:32.528Z,1.00
2023-04-03T20:25:06.231Z,1.00
2023-04-03T20:27:35.117Z,1.00
2023-04-03T20:30:04.735Z,1.00
2023-04-03T20:32:32.648Z,1.00
2023-04-03T20:35:04.228Z,1.00
2023-04-03T20:37:32.462Z,1.00
2023-04-03T20:40:00.289Z,1.00
2023-04-03T20:42:27.827Z,1.00
2023-04-03T20:44:57.480Z,1.00
2023-04-03T20:47:26.114Z,1.00
2023-04-03T20:49:53.774Z,1.00
2023-04-03T20:52:21.484Z,1.00
2023-04-03T20:54:48.572Z,1.00
2023-04-03T20:57:15.533Z,1.00
2023-04-03T20:59:42.667Z,1.00
2023-04-03T21:02:11.589Z,1.00
2023-04-03T21:04:48.400Z,1.00
2023-04-03T21:07:53.372Z,1.00
2023-04-03T21:10:59.103Z,1.00
2023-04-03T21:14:04.050Z,1.00
2023-04-03T21:16:33.993Z,1.00
2023-04-03T21:19:30.857Z,1.00
2023-04-03T21:22:01.236Z,1.00
2023-04-03T21:24:28.770Z,1.00
2023-04-03T21:26:57.426Z,1.00
2023-04-03T21:29:24.266Z,1.00
2023-04-03T21:32:01.637Z,1.00
2023-04-03T21:34:32.336Z,1.30
2023-04-03T21:37:07.860Z,2.40
2023-04-03T21:39:35.048Z,2.70
2023-04-03T21:42:02.085Z,3.90
2023-04-03T21:44:29.819Z,5.20
2023-04-03T21:46:56.803Z,5.10
2023-04-03T21:49:25.351Z,6.10
2023-04-03T21:51:52.723Z,6.90
2023-04-03T21:54:20.461Z,6.20
2023-04-03T21:56:48.392Z,6.30
2023-04-03T21:59:16.074Z,6.60
2023-04-03T22:01:43.561Z,6.50
2023-04-03T22:04:10.945Z,6.90
2023-04-03T22:06:38.266Z,5.80
2023-04-03T22:09:05.355Z,5.80
2023-04-03T22:11:32.953Z,5.20
2023-04-03T22:14:01.009Z,4.50
2023-04-03T22:16:28.043Z,5.50
2023-04-03T22:18:59.266Z,6.30
2023-04-03T22:21:26.680Z,6.90
2023-04-03T22:23:54.611Z,7.40
2023-04-03T22:26:21.861Z,7.50
2023-04-03T22:28:49.307Z,7.40
2023-04-03T22:31:17.341Z,7.40
2023-04-03T22:33:45.505Z,7.10
2023-04-03T22:36:13.652Z,6.70
2023-04-03T22:38:44.445Z,7.10
2023-04-03T22:41:11.957Z,7.80
2023-04-03T22:43:39.482Z,8.20
2023-04-03T22:46:08.868Z,9.50
2023-04-03T22:48:36.866Z,9.90
2023-04-03T22:51:09.728Z,11.30
2023-04-03T22:53:36.844Z,11.90
2023-04-03T22:56:08.598Z,13.70
2023-04-03T22:58:35.602Z,14.20
2023-04-03T23:01:07.619Z,14.30
2023-04-03T23:03:36.074Z,14.70
2023-04-03T23:06:04.266Z,14.70
2023-04-03T23:08:32.738Z,15.20
2023-04-03T23:10:59.945Z,15.40
2023-04-03T23:13:27.852Z,15.70
2023-04-03T23:15:58.617Z,16.90
2023-04-03T23:18:26.894Z,17.10
2023-04-03T23:20:55.057Z,18.30
2023-04-03T23:23:23.773Z,18.20
2023-04-03T23:25:55.347Z,19.20
2023-04-03T23:28:22.890Z,19.20
2023-04-03T23:30:51.077Z,18.90
2023-04-03T23:33:18.040Z,19.40
2023-04-03T23:35:49.203Z,19.60
2023-04-03T23:38:16.454Z,19.30
2023-04-03T23:40:43.994Z,19.00
2023-04-03T23:43:11.222Z,18.90
2023-04-03T23:45:39.081Z,17.90
2023-04-03T23:48:06.636Z,18.20
2023-04-03T23:50:33.947Z,18.50
2023-04-03T23:53:01.074Z,19.10
2023-04-03T23:55:28.168Z,19.60
2023-04-03T23:57:55.442Z,20.00
